Time;durP1;ratioP1;P1;durP2;ratioP2;P2;SDS_P1;SDS_P2;PMS_P1;PMS_P2;Temp;Humidity;BMP_temperature;BMP_pressure;BME280_temperature;BME280_humidity;BME280_pressure;Samples;Min_cycle;Max_cycle;Signal;HPM_P1;HPM_P2
2021/07/22 00:00:49;;;;;;;10.10;8.00;;;18.40;99.90;;;;;;5050610;28;20232;-75
2021/07/22 00:03:16;;;;;;;14.95;8.80;;;18.40;99.90;;;;;;5049548;28;20258;-76
2021/07/22 00:05:43;;;;;;;13.32;9.20;;;18.50;99.90;;;;;;5055908;28;20198;-76
2021/07/22 00:08:12;;;;;;;13.80;7.70;;;18.50;99.90;;;;;;5061420;28;20630;-76
2021/07/22 00:10:39;;;;;;;11.80;7.68;;;18.50;99.90;;;;;;5056580;28;20828;-76
2021/07/22 00:13:06;;;;;;;16.88;8.60;;;18.40;99.90;;;;;;5051040;28;20289;-75
2021/07/22 00:15:34;;;;;;;15.15;8.55;;;18.40;99.90;;;;;;5061238;28;20207;-76
2021/07/22 00:18:03;;;;;;;11.88;8.02;;;18.40;99.90;;;;;;5054577;28;21024;-75
2021/07/22 00:20:30;;;;;;;13.45;8.82;;;18.40;99.90;;;;;;5060649;28;20202;-75
2021/07/22 00:22:57;;;;;;;15.93;8.82;;;18.40;99.90;;;;;;5053585;28;20221;-75
2021/07/22 00:25:26;;;;;;;14.13;8.25;;;18.40;99.90;;;;;;5060857;28;20617;-76
2021/07/22 00:27:52;;;;;;;13.98;8.25;;;18.50;99.90;;;;;;5055211;28;20746;-75
2021/07/22 00:30:19;;;;;;;12.88;8.38;;;18.50;99.90;;;;;;5053189;28;20202;-75
2021/07/22 00:32:46;;;;;;;11.65;7.95;;;18.50;99.90;;;;;;5051672;28;20198;-76
2021/07/22 00:35:13;;;;;;;14.18;8.48;;;18.50;99.90;;;;;;5051840;28;20198;-76
2021/07/22 00:37:40;;;;;;;13.88;8.48;;;18.50;99.90;;;;;;5052042;28;20205;-76
2021/07/22 00:40:08;;;;;;;12.25;8.80;;;18.50;99.90;;;;;;5050148;28;20715;-75
2021/07/22 00:43:02;;;;;;;12.30;8.88;;;18.60;99.90;;;;;;5048396;28;20198;-75
2021/07/22 00:45:30;;;;;;;13.05;8.88;;;18.60;99.90;;;;;;5048419;28;20214;-75
2021/07/22 00:47:59;;;;;;;14.35;9.30;;;18.70;99.90;;;;;;5057567;28;20255;-75
2021/07/22 00:50:26;;;;;;;13.65;7.75;;;18.60;99.90;;;;;;5054868;28;20206;-75
2021/07/22 00:52:53;;;;;;;14.80;7.97;;;18.70;99.90;;;;;;5047700;28;20198;-75
2021/07/22 00:55:23;;;;;;;15.68;8.57;;;18.70;99.90;;;;;;5054655;28;20198;-75
2021/07/22 00:57:49;;;;;;;14.80;8.95;;;18.70;99.90;;;;;;5049206;28;20206;-75
2021/07/22 01:00:18;;;;;;;12.50;8.73;;;18.60;99.90;;;;;;5048389;28;20233;-75
2021/07/22 01:02:45;;;;;;;12.95;9.52;;;18.60;99.90;;;;;;5048318;28;20242;-75
2021/07/22 01:05:12;;;;;;;13.60;9.00;;;18.60;99.90;;;;;;5048196;28;20261;-76
2021/07/22 01:07:39;;;;;;;14.48;8.88;;;18.70;99.90;;;;;;5046843;28;20234;-76
2021/07/22 01:10:07;;;;;;;11.02;7.88;;;18.70;99.90;;;;;;5053659;28;20198;-75
2021/07/22 01:12:34;;;;;;;15.30;8.02;;;18.70;99.90;;;;;;5046899;28;20222;-76
2021/07/22 01:15:01;;;;;;;11.85;8.68;;;18.70;99.90;;;;;;5047304;28;20194;-76
2021/07/22 01:17:38;;;;;;;12.98;8.13;;;18.70;99.90;;;;;;5056854;28;20206;-76
2021/07/22 01:20:12;;;;;;;12.20;7.90;;;18.70;99.90;;;;;;5051484;28;20196;-75
2021/07/22 01:22:39;;;;;;;17.80;9.13;;;18.80;99.90;;;;;;5059126;28;20202;-75
2021/07/22 01:25:07;;;;;;;12.27;7.90;;;18.90;99.90;;;;;;5054913;28;20206;-75
2021/07/22 01:27:34;;;;;;;12.15;8.32;;;18.80;99.90;;;;;;5053155;28;20222;-75
2021/07/22 01:30:01;;;;;;;12.68;8.32;;;18.80;99.90;;;;;;5055113;28;20206;-75
2021/07/22 01:32:28;;;;;;;13.23;8.32;;;18.90;99.90;;;;;;5053588;28;20224;-75
2021/07/22 01:34:55;;;;;;;12.85;8.60;;;18.80;99.90;;;;;;5048267;28;20277;-74
2021/07/22 01:37:23;;;;;;;15.02;8.57;;;18.80;99.90;;;;;;5053823;28;20260;-76
2021/07/22 01:39:50;;;;;;;14.27;9.68;;;18.70;99.90;;;;;;5047418;28;20206;-75
2021/07/22 01:42:17;;;;;;;15.93;8.45;;;18.70;99.90;;;;;;5047648;28;20642;-75
2021/07/22 01:44:44;;;;;;;11.82;8.27;;;18.70;99.90;;;;;;5046900;28;20264;-75
2021/07/22 01:47:11;;;;;;;13.13;8.27;;;18.50;99.90;;;;;;5052451;28;20202;-75
2021/07/22 01:49:38;;;;;;;15.90;9.20;;;18.40;99.90;;;;;;5046995;28;20202;-76
2021/07/22 01:52:06;;;;;;;14.20;8.27;;;18.40;99.90;;;;;;5051230;28;20266;-76
2021/07/22 01:54:35;;;;;;;16.65;9.48;;;18.30;99.90;;;;;;5047328;28;20325;-76
2021/07/22 01:57:02;;;;;;;15.90;9.10;;;18.20;99.90;;;;;;5047039;28;20234;-75
2021/07/22 01:59:35;;;;;;;14.65;9.02;;;18.20;99.90;;;;;;5052598;28;20202;-76
2021/07/22 02:02:03;;;;;;;15.40;10.00;;;18.20;99.90;;;;;;5051367;28;20206;-76
2021/07/22 02:04:30;;;;;;;13.32;8.40;;;18.20;99.90;;;;;;5047478;28;20234;-75
2021/07/22 02:06:57;;;;;;;13.30;8.55;;;18.20;99.90;;;;;;5051750;28;20210;-76
2021/07/22 02:09:24;;;;;;;15.05;9.02;;;18.10;99.90;;;;;;5046943;28;20245;-75
2021/07/22 02:11:53;;;;;;;14.98;8.55;;;18.10;99.90;;;;;;5047134;28;20228;-75
2021/07/22 02:14:20;;;;;;;14.50;9.30;;;18.00;99.90;;;;;;5053922;28;20229;-75
2021/07/22 02:16:47;;;;;;;11.90;8.30;;;18.10;99.90;;;;;;5053865;28;20206;-76
2021/07/22 02:19:14;;;;;;;13.80;9.07;;;18.10;99.90;;;;;;5056822;28;20206;-75
2021/07/22 02:21:42;;;;;;;15.00;9.02;;;18.10;99.90;;;;;;5054324;28;20197;-75
2021/07/22 02:24:09;;;;;;;13.63;8.65;;;17.90;99.90;;;;;;5051122;28;20205;-75
2021/07/22 02:26:36;;;;;;;12.00;9.00;;;17.80;99.90;;;;;;5054148;28;20194;-75
2021/07/22 02:29:06;;;;;;;14.07;9.48;;;17.60;99.90;;;;;;5058058;28;20222;-75
2021/07/22 02:31:33;;;;;;;13.45;8.52;;;17.60;99.90;;;;;;5066562;28;20241;-75
2021/07/22 02:34:00;;;;;;;20.77;8.63;;;17.60;99.90;;;;;;5061887;28;20225;-75
2021/07/22 02:36:27;;;;;;;14.57;8.73;;;17.60;99.90;;;;;;5046386;28;20256;-76
2021/07/22 02:38:54;;;;;;;15.75;8.60;;;17.60;99.90;;;;;;5049927;28;20213;-76
2021/07/22 02:41:21;;;;;;;16.80;8.73;;;17.60;99.90;;;;;;5047100;28;20225;-76
2021/07/22 02:43:48;;;;;;;11.77;7.88;;;17.60;99.90;;;;;;5045531;28;20210;-76
2021/07/22 02:46:17;;;;;;;14.48;8.43;;;17.50;99.90;;;;;;5048740;28;20202;-76
2021/07/22 02:48:43;;;;;;;13.32;9.30;;;17.50;99.90;;;;;;5054735;28;20264;-76
2021/07/22 02:51:10;;;;;;;16.85;9.55;;;17.50;99.90;;;;;;5050359;28;20202;-76
2021/07/22 02:53:38;;;;;;;12.35;7.95;;;17.50;99.90;;;;;;5054994;28;20201;-76
2021/07/22 02:56:05;;;;;;;18.17;8.52;;;17.50;99.90;;;;;;5051155;28;20256;-75
2021/07/22 02:58:32;;;;;;;12.95;7.72;;;17.50;99.90;;;;;;5055829;28;20252;-76
2021/07/22 03:00:59;;;;;;;14.00;8.80;;;17.50;99.90;;;;;;5056283;28;20202;-75
2021/07/22 03:03:27;;;;;;;12.27;8.77;;;17.50;99.90;;;;;;5065466;28;20230;-75
2021/07/22 03:05:54;;;;;;;17.58;10.05;;;17.50;99.90;;;;;;5054470;28;20229;-75
2021/07/22 03:08:22;;;;;;;13.38;7.95;;;17.50;99.90;;;;;;5055386;28;20228;-75
2021/07/22 03:10:50;;;;;;;13.30;8.30;;;17.50;99.90;;;;;;5050075;28;20297;-75
2021/07/22 03:13:17;;;;;;;14.70;7.90;;;17.40;99.90;;;;;;5053704;28;20271;-75
2021/07/22 03:15:43;;;;;;;18.65;8.60;;;17.30;99.90;;;;;;5052836;28;20241;-75
2021/07/22 03:18:10;;;;;;;14.80;8.88;;;17.30;99.90;;;;;;5055720;28;20229;-75
2021/07/22 03:20:39;;;;;;;12.95;9.02;;;17.30;99.90;;;;;;5056838;28;20242;-75
2021/07/22 03:23:06;;;;;;;14.75;8.13;;;17.30;99.90;;;;;;5053885;28;20209;-75
2021/07/22 03:25:33;;;;;;;12.82;9.15;;;17.30;99.90;;;;;;5049887;28;20225;-75
2021/07/22 03:28:02;;;;;;;11.68;7.88;;;17.30;99.90;;;;;;5050600;28;20313;-75
2021/07/22 03:30:29;;;;;;;13.60;9.20;;;17.30;99.90;;;;;;5053852;28;20202;-75
2021/07/22 03:32:56;;;;;;;13.23;9.05;;;17.20;99.90;;;;;;5056919;28;20210;-75
2021/07/22 03:35:22;;;;;;;12.95;8.50;;;17.20;99.90;;;;;;5058238;28;20259;-75
2021/07/22 03:37:51;;;;;;;11.68;8.00;;;17.20;99.90;;;;;;5062061;28;20210;-75
2021/07/22 03:40:18;;;;;;;14.80;9.07;;;17.20;99.90;;;;;;5050357;28;20206;-75
2021/07/22 03:42:45;;;;;;;16.65;8.93;;;17.30;99.90;;;;;;5047882;28;20457;-75
2021/07/22 03:45:13;;;;;;;18.50;8.82;;;17.30;99.90;;;;;;5050479;28;20221;-75
2021/07/22 03:47:40;;;;;;;13.82;8.88;;;17.30;99.90;;;;;;5052494;28;20377;-75
2021/07/22 03:50:08;;;;;;;16.70;8.73;;;17.30;99.90;;;;;;5049400;28;20202;-74
2021/07/22 03:52:35;;;;;;;17.48;8.65;;;17.30;99.90;;;;;;5049650;28;20202;-74
2021/07/22 03:55:03;;;;;;;18.85;8.75;;;17.40;99.90;;;;;;5057735;28;20202;-74
2021/07/22 03:57:30;;;;;;;12.27;7.47;;;17.40;99.90;;;;;;5048472;28;20233;-75
2021/07/22 03:59:57;;;;;;;12.15;8.52;;;17.30;99.90;;;;;;5053799;28;20206;-75
2021/07/22 04:02:24;;;;;;;10.32;8.13;;;17.30;99.90;;;;;;5057598;28;20633;-75
2021/07/22 04:04:51;;;;;;;10.55;7.75;;;17.30;99.90;;;;;;5049375;28;20229;-75
2021/07/22 04:07:18;;;;;;;12.73;8.07;;;17.30;99.90;;;;;;5054073;28;20225;-74
2021/07/22 04:09:45;;;;;;;13.90;8.48;;;17.40;99.90;;;;;;5058342;28;20234;-75
2021/07/22 04:12:17;;;;;;;12.50;8.15;;;17.40;99.90;;;;;;5075309;28;20274;-75
2021/07/22 04:14:44;;;;;;;14.50;8.40;;;17.30;99.90;;;;;;5075516;28;20183;-75
2021/07/22 04:17:14;;;;;;;14.82;8.00;;;17.40;99.90;;;;;;5062261;28;20198;-75
2021/07/22 04:19:41;;;;;;;11.75;8.05;;;17.40;99.90;;;;;;5069046;28;20269;-75
2021/07/22 04:22:08;;;;;;;13.00;7.93;;;17.30;99.90;;;;;;5056821;28;20253;-75
2021/07/22 04:24:35;;;;;;;12.93;7.95;;;17.20;99.90;;;;;;5053856;28;20229;-75
2021/07/22 04:27:02;;;;;;;15.73;9.23;;;17.20;99.90;;;;;;5055692;28;20649;-75
2021/07/22 04:29:30;;;;;;;12.60;8.23;;;17.20;99.90;;;;;;5048263;28;20226;-75
2021/07/22 04:31:57;;;;;;;13.32;8.82;;;17.20;99.90;;;;;;5052481;28;20214;-75
2021/07/22 04:34:24;;;;;;;14.40;8.68;;;17.30;99.90;;;;;;5048759;28;20202;-75
2021/07/22 04:36:51;;;;;;;16.15;8.07;;;17.30;99.90;;;;;;5048741;28;20268;-75
2021/07/22 04:39:18;;;;;;;14.70;8.63;;;17.20;99.90;;;;;;5048629;28;20222;-75
2021/07/22 04:41:45;;;;;;;15.38;8.20;;;17.20;99.90;;;;;;5048420;28;20203;-75
2021/07/22 04:44:12;;;;;;;14.73;8.18;;;17.30;99.90;;;;;;5053836;28;20224;-75
2021/07/22 04:46:40;;;;;;;14.70;8.90;;;17.30;99.90;;;;;;5057464;28;20201;-75
2021/07/22 04:49:07;;;;;;;15.18;9.20;;;17.30;99.90;;;;;;5047805;28;20623;-75
2021/07/22 04:51:34;;;;;;;14.38;8.45;;;17.40;99.90;;;;;;5052561;28;20256;-75
2021/07/22 04:54:01;;;;;;;13.93;9.15;;;17.40;99.90;;;;;;5056520;28;20197;-75
2021/07/22 04:56:27;;;;;;;10.40;8.25;;;17.50;99.90;;;;;;5057690;28;20210;-75
2021/07/22 04:58:54;;;;;;;13.05;8.80;;;17.60;99.90;;;;;;5048652;28;20198;-75
2021/07/22 05:01:21;;;;;;;14.18;8.60;;;17.60;99.90;;;;;;5047175;28;20194;-75
2021/07/22 05:03:49;;;;;;;13.63;9.05;;;17.60;99.90;;;;;;5059589;28;20230;-75
2021/07/22 05:06:16;;;;;;;13.57;8.43;;;17.70;99.90;;;;;;5048276;28;20202;-75
2021/07/22 05:08:44;;;;;;;13.38;9.00;;;17.70;99.90;;;;;;5054866;28;20225;-76
2021/07/22 05:11:11;;;;;;;15.32;9.32;;;17.80;99.90;;;;;;5053412;28;20208;-75
2021/07/22 05:13:40;;;;;;;13.27;8.25;;;17.80;99.90;;;;;;5055576;28;20240;-76
2021/07/22 05:16:07;;;;;;;11.45;8.18;;;17.90;99.90;;;;;;5048225;28;20209;-75
2021/07/22 05:18:34;;;;;;;20.80;9.18;;;18.00;99.90;;;;;;5054378;28;20253;-75
2021/07/22 05:21:05;;;;;;;13.27;8.93;;;18.00;99.90;;;;;;5047776;28;20226;-75
2021/07/22 05:23:32;;;;;;;14.70;8.88;;;18.00;99.90;;;;;;5057726;28;20261;-75
2021/07/22 05:25:59;;;;;;;19.13;10.43;;;18.10;99.90;;;;;;5054627;28;20205;-75
2021/07/22 05:28:26;;;;;;;18.48;11.13;;;18.10;99.90;;;;;;5051860;28;20249;-75
2021/07/22 05:30:53;;;;;;;25.88;10.63;;;18.20;99.90;;;;;;5053100;28;20197;-76
2021/07/22 05:33:20;;;;;;;19.95;11.13;;;18.20;99.90;;;;;;5047721;28;20203;-76
2021/07/22 05:35:46;;;;;;;18.13;11.07;;;18.20;99.90;;;;;;5047787;28;20202;-75
2021/07/22 05:38:15;;;;;;;18.70;10.00;;;18.20;99.90;;;;;;5046732;28;20229;-76
2021/07/22 05:40:42;;;;;;;18.70;11.10;;;18.30;99.90;;;;;;5047318;28;20240;-76
2021/07/22 05:43:08;;;;;;;18.75;10.90;;;18.40;99.90;;;;;;5050841;28;20202;-76
2021/07/22 05:45:36;;;;;;;17.65;11.35;;;18.50;99.90;;;;;;5047527;28;20225;-76
2021/07/22 05:48:03;;;;;;;19.35;11.63;;;18.50;99.90;;;;;;5047553;28;20611;-75
2021/07/22 05:50:30;;;;;;;21.80;11.70;;;18.60;99.90;;;;;;5051224;28;20230;-76
2021/07/22 05:52:59;;;;;;;18.70;10.57;;;18.70;99.90;;;;;;5046795;28;20201;-75
2021/07/22 05:55:28;;;;;;;19.52;10.70;;;18.70;99.90;;;;;;5046947;28;20237;-75
2021/07/22 05:57:55;;;;;;;17.23;11.07;;;18.80;99.90;;;;;;5053303;28;20265;-75
2021/07/22 06:00:22;;;;;;;21.77;12.10;;;18.80;99.90;;;;;;5047206;28;20620;-76
2021/07/22 06:02:49;;;;;;;21.77;11.45;;;18.90;99.90;;;;;;5055189;28;20665;-75
2021/07/22 06:05:19;;;;;;;19.67;10.60;;;18.90;99.90;;;;;;5049945;28;20201;-75
2021/07/22 06:07:45;;;;;;;26.40;11.02;;;18.90;99.90;;;;;;5050639;28;20214;-75
2021/07/22 06:10:13;;;;;;;21.40;11.25;;;19.00;99.90;;;;;;5046400;28;20465;-75
2021/07/22 06:12:41;;;;;;;20.77;11.85;;;19.00;99.90;;;;;;5047117;28;20206;-75
2021/07/22 06:15:09;;;;;;;17.90;11.65;;;19.00;99.90;;;;;;5049826;28;20232;-75
2021/07/22 06:17:36;;;;;;;20.90;12.15;;;19.10;99.90;;;;;;5057520;28;20197;-76
2021/07/22 06:20:04;;;;;;;22.33;11.65;;;19.20;99.90;;;;;;5058388;28;20201;-76
2021/07/22 06:22:32;;;;;;;18.73;9.98;;;19.30;99.90;;;;;;5051650;28;20719;-76
2021/07/22 06:24:59;;;;;;;22.80;10.80;;;19.50;99.90;;;;;;5057432;28;20198;-75
2021/07/22 06:27:25;;;;;;;18.92;10.90;;;19.60;99.90;;;;;;5055626;28;20224;-75
2021/07/22 06:29:54;;;;;;;19.38;10.88;;;19.90;99.90;;;;;;5070100;28;20632;-75
2021/07/22 06:32:21;;;;;;;18.73;10.43;;;20.10;99.90;;;;;;5059407;28;20198;-75
2021/07/22 06:34:47;;;;;;;17.58;9.75;;;20.30;99.90;;;;;;5060014;28;20248;-75
2021/07/22 06:37:15;;;;;;;21.60;11.25;;;20.60;99.90;;;;;;5051500;28;20202;-75
2021/07/22 06:39:41;;;;;;;20.95;11.77;;;20.90;99.90;;;;;;5051387;28;20233;-75
2021/07/22 06:42:08;;;;;;;19.77;11.75;;;21.20;99.90;;;;;;5059408;28;20206;-77
2021/07/22 06:44:35;;;;;;;17.92;11.50;;;21.30;99.90;;;;;;5053915;28;20206;-76
2021/07/22 06:47:04;;;;;;;19.65;11.85;;;21.50;99.90;;;;;;5057097;28;20256;-75
2021/07/22 06:49:31;;;;;;;17.80;11.50;;;21.60;99.90;;;;;;5068696;28;20229;-75
2021/07/22 06:52:00;;;;;;;20.88;11.90;;;21.60;99.90;;;;;;5052204;28;20571;-75
2021/07/22 06:54:26;;;;;;;17.95;11.15;;;21.50;99.90;;;;;;5055049;28;20611;-75
2021/07/22 06:56:53;;;;;;;25.63;10.50;;;21.50;99.90;;;;;;5051205;28;20202;-75
2021/07/22 06:59:20;;;;;;;16.20;11.48;;;21.40;99.90;;;;;;5050244;28;20248;-75
2021/07/22 07:01:47;;;;;;;17.35;11.27;;;21.40;99.90;;;;;;5062118;28;20224;-76
2021/07/22 07:04:15;;;;;;;23.58;11.35;;;21.30;99.90;;;;;;5063414;28;20314;-75
2021/07/22 07:06:42;;;;;;;22.08;12.57;;;21.30;99.90;;;;;;5066948;28;20660;-75
2021/07/22 07:09:09;;;;;;;22.98;12.13;;;21.30;99.90;;;;;;5054756;28;20272;-75
2021/07/22 07:11:36;;;;;;;24.88;12.13;;;21.40;99.90;;;;;;5056698;28;20225;-75
2021/07/22 07:14:03;;;;;;;21.20;13.20;;;21.30;99.90;;;;;;5054966;28;20206;-75
2021/07/22 07:16:30;;;;;;;17.60;10.88;;;21.30;99.90;;;;;;5057487;28;20195;-76
2021/07/22 07:18:57;;;;;;;18.13;10.93;;;21.30;99.90;;;;;;5061025;28;21025;-75
2021/07/22 07:21:25;;;;;;;28.33;11.27;;;21.40;99.90;;;;;;5058384;28;20223;-75
2021/07/22 07:23:53;;;;;;;19.33;11.77;;;21.40;99.90;;;;;;5050927;28;20228;-75
2021/07/22 07:26:20;;;;;;;16.45;10.68;;;21.40;99.90;;;;;;5053697;28;20202;-75
2021/07/22 07:28:47;;;;;;;19.80;10.70;;;21.40;99.90;;;;;;5056481;28;20228;-75
2021/07/22 07:31:14;;;;;;;21.70;12.00;;;21.40;99.90;;;;;;5051905;28;20220;-75
2021/07/22 07:33:41;;;;;;;17.20;12.23;;;21.50;99.90;;;;;;5062183;28;20206;-75
2021/07/22 07:36:08;;;;;;;19.77;11.35;;;21.60;99.90;;;;;;5056263;28;20267;-75
2021/07/22 07:38:36;;;;;;;15.30;10.27;;;21.70;99.90;;;;;;5053785;28;20261;-75
2021/07/22 07:41:03;;;;;;;23.42;12.38;;;21.70;99.90;;;;;;5050279;28;20203;-75
2021/07/22 07:43:30;;;;;;;24.65;11.18;;;21.80;99.90;;;;;;5055619;28;20251;-75
2021/07/22 07:45:57;;;;;;;21.15;10.63;;;21.80;99.90;;;;;;5057044;28;20222;-75
2021/07/22 07:48:24;;;;;;;22.45;10.55;;;21.90;99.90;;;;;;5058212;28;20198;-75
2021/07/22 07:50:50;;;;;;;18.08;11.60;;;22.00;99.90;;;;;;5049647;28;20276;-75
2021/07/22 07:53:19;;;;;;;19.50;11.25;;;22.10;99.90;;;;;;5059945;28;20232;-75
2021/07/22 07:55:48;;;;;;;19.65;11.05;;;22.20;99.90;;;;;;5062407;28;20241;-75
2021/07/22 07:58:15;;;;;;;18.70;12.07;;;22.30;99.90;;;;;;5051618;28;20268;-75
2021/07/22 08:00:42;;;;;;;17.75;10.65;;;22.40;99.90;;;;;;5053019;28;20260;-76
2021/07/22 08:03:17;;;;;;;18.13;10.02;;;22.60;99.90;;;;;;5056722;28;20253;-74
2021/07/22 08:05:44;;;;;;;16.00;10.85;;;22.70;99.90;;;;;;5055356;28;20205;-75
2021/07/22 08:08:11;;;;;;;18.45;11.55;;;22.60;99.90;;;;;;5051838;28;20264;-75
2021/07/22 08:10:40;;;;;;;17.02;10.20;;;22.50;99.90;;;;;;5060278;28;20224;-75
2021/07/22 08:13:09;;;;;;;20.30;11.50;;;22.70;99.90;;;;;;5049739;28;20195;-75
2021/07/22 08:15:36;;;;;;;21.63;11.27;;;22.60;99.90;;;;;;5055898;28;20255;-74
2021/07/22 08:18:03;;;;;;;17.02;11.25;;;22.70;99.90;;;;;;5053469;28;20202;-74
2021/07/22 08:20:30;;;;;;;16.35;11.35;;;22.80;99.90;;;;;;5049683;28;20202;-75
2021/07/22 08:22:57;;;;;;;23.35;13.85;;;22.90;99.90;;;;;;5055228;28;20267;-75
2021/07/22 08:25:24;;;;;;;23.30;13.50;;;22.90;99.90;;;;;;5052497;28;20255;-75
2021/07/22 08:27:51;;;;;;;24.50;13.52;;;23.00;99.90;;;;;;5060727;28;20214;-75
2021/07/22 08:30:19;;;;;;;22.15;13.75;;;23.10;99.90;;;;;;5054451;28;20232;-75
2021/07/22 08:32:47;;;;;;;19.30;12.77;;;23.20;99.90;;;;;;5060381;28;20240;-75
2021/07/22 08:35:14;;;;;;;29.45;13.80;;;23.40;99.90;;;;;;5058485;28;20205;-74
2021/07/22 08:37:43;;;;;;;21.95;14.82;;;23.60;99.90;;;;;;5060910;28;20213;-75
2021/07/22 08:40:12;;;;;;;24.60;14.02;;;23.70;99.90;;;;;;5054146;28;20198;-74
2021/07/22 08:42:42;;;;;;;24.85;15.43;;;24.00;99.90;;;;;;5056014;28;20673;-75
2021/07/22 08:45:11;;;;;;;24.80;15.13;;;24.40;99.90;;;;;;5053537;28;20208;-75
2021/07/22 08:47:41;;;;;;;24.27;13.82;;;24.70;99.90;;;;;;5052161;28;20197;-75
2021/07/22 08:50:10;;;;;;;23.23;14.30;;;24.80;99.90;;;;;;5052360;28;20249;-75
2021/07/22 08:52:37;;;;;;;25.65;14.40;;;25.00;99.90;;;;;;5051833;28;20220;-74
2021/07/22 08:55:04;;;;;;;22.27;13.98;;;25.20;99.90;;;;;;5052776;28;20206;-75
2021/07/22 08:57:35;;;;;;;22.05;15.38;;;25.50;99.90;;;;;;5062481;28;20256;-75
2021/07/22 09:00:06;;;;;;;26.17;16.23;;;25.60;99.90;;;;;;5058313;28;20213;-74
2021/07/22 09:02:34;;;;;;;21.90;14.38;;;25.00;99.90;;;;;;5054188;28;20210;-74
2021/07/22 09:05:04;;;;;;;19.70;12.93;;;24.70;99.90;;;;;;5067527;28;20232;-74
2021/07/22 09:07:32;;;;;;;23.15;13.32;;;24.80;99.90;;;;;;5056096;28;20201;-74
2021/07/22 09:12:56;;;;;;;28.98;14.98;;;25.50;99.90;;;;;;5053593;28;20207;-73
2021/07/22 09:15:25;;;;;;;27.02;16.38;;;25.70;99.90;;;;;;5056788;28;20227;-75
2021/07/22 09:17:53;;;;;;;25.45;14.68;;;25.80;99.90;;;;;;5062569;28;20615;-74
2021/07/22 09:20:30;;;;;;;23.02;15.07;;;25.80;99.90;;;;;;5049251;28;20208;-74
2021/07/22 09:22:58;;;;;;;23.45;14.95;;;25.90;99.90;;;;;;5058459;28;20269;-73
2021/07/22 09:25:40;;;;;;;25.83;15.70;;;26.00;99.90;;;;;;5064353;28;20205;-75
2021/07/22 09:28:07;;;;;;;27.20;16.02;;;26.10;99.90;;;;;;5063491;28;20202;-75
2021/07/22 09:30:35;;;;;;;29.23;16.33;;;26.10;99.90;;;;;;5055385;28;20255;-74
2021/07/22 09:33:03;;;;;;;26.75;16.33;;;26.10;99.90;;;;;;5066785;28;20221;-75
2021/07/22 09:35:35;;;;;;;25.15;16.50;;;26.00;99.90;;;;;;5066873;28;20222;-74
2021/07/22 09:38:10;;;;;;;30.30;17.40;;;26.00;99.90;;;;;;5054968;28;20210;-75
2021/07/22 09:40:37;;;;;;;24.85;16.48;;;26.20;99.90;;;;;;5065335;28;20209;-74
2021/07/22 09:43:04;;;;;;;28.90;16.95;;;26.40;99.90;;;;;;5059801;28;20282;-75
2021/07/22 09:45:35;;;;;;;22.35;14.52;;;26.40;99.90;;;;;;5058933;28;20209;-75
2021/07/22 09:48:10;;;;;;;26.10;16.05;;;26.50;99.90;;;;;;5052846;28;20210;-75
2021/07/22 09:50:43;;;;;;;24.40;14.52;;;26.60;99.90;;;;;;5061142;28;20315;-74
2021/07/22 09:53:11;;;;;;;23.27;14.80;;;26.80;99.90;;;;;;5062274;28;20206;-75
2021/07/22 09:55:39;;;;;;;27.27;16.20;;;27.10;99.90;;;;;;5053690;28;20202;-75
2021/07/22 09:58:07;;;;;;;32.58;18.10;;;27.10;99.90;;;;;;5052846;28;20202;-75
2021/07/22 10:00:36;;;;;;;22.50;14.60;;;26.40;99.90;;;;;;5051523;28;20202;-75
2021/07/22 10:08:34;;;;;;;19.20;13.10;;;26.80;99.90;;;;;;5082787;28;20201;-75
2021/07/22 10:11:05;;;;;;;17.60;10.65;;;27.10;99.90;;;;;;5089205;28;20240;-75
2021/07/22 10:13:35;;;;;;;22.10;10.68;;;27.30;99.90;;;;;;5085863;28;20205;-75
2021/07/22 10:16:06;;;;;;;21.60;12.23;;;27.60;99.90;;;;;;5089206;28;20205;-75
2021/07/22 10:18:37;;;;;;;16.75;12.05;;;27.80;99.90;;;;;;5089249;28;20201;-75
2021/07/22 10:21:05;;;;;;;23.98;14.05;;;28.00;99.90;;;;;;5090165;28;20234;-75
2021/07/22 10:23:34;;;;;;;23.52;14.85;;;28.20;99.90;;;;;;5089605;28;20278;-76
2021/07/22 10:26:01;;;;;;;27.85;15.00;;;28.40;99.90;;;;;;5083067;28;20201;-75
2021/07/22 10:28:29;;;;;;;28.35;15.95;;;28.30;99.90;;;;;;5086904;28;20201;-76
2021/07/22 10:30:57;;;;;;;29.13;13.70;;;27.90;99.90;;;;;;5086425;28;20222;-75
2021/07/22 10:33:25;;;;;;;27.70;14.10;;;27.60;99.90;;;;;;5082384;28;20221;-76
2021/07/22 10:35:54;;;;;;;25.60;13.48;;;27.50;99.90;;;;;;5082774;28;20227;-75
2021/07/22 10:38:23;;;;;;;26.33;13.73;;;27.60;99.90;;;;;;5082706;28;20209;-75
2021/07/22 10:40:54;;;;;;;25.13;15.25;;;27.90;99.90;;;;;;5082750;28;20239;-76
2021/07/22 10:43:41;;;;;;;25.48;14.32;;;27.90;99.90;;;;;;5088913;28;20228;-75
2021/07/22 10:46:10;;;;;;;25.15;14.10;;;27.80;99.90;;;;;;5083000;28;20228;-75
2021/07/22 10:48:38;;;;;;;24.77;14.38;;;27.90;99.90;;;;;;5086864;28;20201;-76
2021/07/22 10:51:07;;;;;;;30.63;14.73;;;27.80;99.90;;;;;;5088803;28;20552;-75
2021/07/22 10:53:42;;;;;;;21.95;13.13;;;27.90;99.90;;;;;;5082211;28;20231;-75
2021/07/22 10:56:11;;;;;;;23.15;13.73;;;27.90;99.90;;;;;;5082346;28;20204;-75
2021/07/22 10:58:57;;;;;;;28.80;15.90;;;28.10;99.90;;;;;;5085904;28;20231;-75
2021/07/22 11:01:50;;;;;;;28.25;16.13;;;28.00;99.90;;;;;;5081379;28;20254;-75
2021/07/22 11:04:42;;;;;;;27.83;16.15;;;28.30;99.90;;;;;;5089500;28;20353;-75
2021/07/22 11:07:17;;;;;;;24.85;15.35;;;28.60;99.90;;;;;;5087017;28;20205;-75
2021/07/22 11:09:44;;;;;;;27.35;16.92;;;28.80;99.90;;;;;;5082439;28;20192;-76
2021/07/22 11:12:43;;;;;;;27.02;16.67;;;28.80;99.90;;;;;;5087695;28;20205;-76
2021/07/22 11:15:13;;;;;;;23.27;15.77;;;28.70;99.90;;;;;;5077650;28;20702;-75
2021/07/22 11:17:40;;;;;;;23.90;15.35;;;28.50;99.90;;;;;;5068842;28;20529;-75
2021/07/22 11:20:33;;;;;;;24.25;15.65;;;28.40;99.90;;;;;;5074134;28;20236;-74
2021/07/22 11:23:12;;;;;;;32.35;17.73;;;28.20;99.90;;;;;;5074548;28;20301;-74
2021/07/22 11:25:45;;;;;;;32.30;15.77;;;27.90;99.90;;;;;;5068593;28;20289;-76
2021/07/22 11:28:15;;;;;;;30.52;17.90;;;27.70;99.90;;;;;;5075135;28;20202;-75
2021/07/22 11:30:58;;;;;;;25.98;16.33;;;27.50;99.90;;;;;;5081577;28;20236;-76
2021/07/22 11:33:25;;;;;;;31.67;16.98;;;27.30;99.90;;;;;;5073829;28;20224;-75
2021/07/22 11:35:57;;;;;;;29.10;16.58;;;27.10;99.90;;;;;;5067892;28;20232;-75
2021/07/22 11:38:24;;;;;;;27.65;15.57;;;27.10;99.90;;;;;;5067665;28;20229;-75
2021/07/22 11:40:51;;;;;;;29.92;15.93;;;27.20;99.90;;;;;;5079616;28;20201;-75
2021/07/22 11:43:37;;;;;;;25.90;14.20;;;27.00;99.90;;;;;;5068373;28;20291;-75
2021/07/22 11:46:05;;;;;;;19.90;12.55;;;27.00;99.90;;;;;;5074043;28;20619;-75
2021/07/22 11:48:31;;;;;;;22.90;13.05;;;27.00;99.90;;;;;;5067651;28;20202;-75
2021/07/22 11:51:00;;;;;;;23.25;12.98;;;26.70;99.90;;;;;;5067732;28;20205;-75
2021/07/22 11:53:27;;;;;;;18.27;11.40;;;26.50;99.90;;;;;;5071372;28;20205;-76
2021/07/22 11:55:54;;;;;;;18.52;10.57;;;26.30;99.90;;;;;;5070370;28;20224;-75
2021/07/22 11:58:21;;;;;;;22.85;11.13;;;26.40;99.90;;;;;;5072374;28;20653;-75
2021/07/22 12:00:50;;;;;;;20.50;9.98;;;26.50;99.90;;;;;;5067570;28;20224;-75
2021/07/22 12:03:23;;;;;;;18.30;11.50;;;26.50;99.90;;;;;;5072531;28;20303;-75
2021/07/22 12:05:50;;;;;;;20.13;11.93;;;26.50;99.90;;;;;;5066179;28;20236;-76
2021/07/22 12:08:18;;;;;;;22.55;11.50;;;26.40;99.90;;;;;;5073791;28;20205;-75
2021/07/22 12:10:46;;;;;;;15.77;10.55;;;26.50;99.90;;;;;;5078339;28;20224;-75
2021/07/22 12:13:13;;;;;;;27.38;10.13;;;26.50;99.90;;;;;;5081089;28;20210;-75
2021/07/22 12:15:42;;;;;;;21.15;10.13;;;26.30;99.90;;;;;;5078262;28;20200;-75
2021/07/22 12:18:11;;;;;;;16.63;10.45;;;26.10;99.90;;;;;;5076956;28;20271;-75
2021/07/22 12:20:38;;;;;;;20.48;11.02;;;26.00;99.90;;;;;;5067114;28;20197;-74
2021/07/22 12:23:31;;;;;;;15.45;9.10;;;26.00;99.90;;;;;;5074120;28;20269;-74
2021/07/22 12:26:03;;;;;;;25.60;11.52;;;26.00;99.90;;;;;;5071963;28;20212;-74
2021/07/22 12:28:31;;;;;;;19.02;10.10;;;26.00;99.90;;;;;;5077515;28;20197;-75
2021/07/22 12:31:14;;;;;;;16.60;8.88;;;26.00;99.90;;;;;;5067818;28;20218;-75
2021/07/22 12:33:43;;;;;;;15.55;10.00;;;26.00;99.90;;;;;;5066978;28;20298;-75
2021/07/22 12:36:20;;;;;;;17.50;10.68;;;26.00;99.90;;;;;;5075633;28;20262;-74
2021/07/22 12:38:47;;;;;;;13.38;9.57;;;26.00;99.90;;;;;;5070849;28;20269;-74
2021/07/22 12:41:26;;;;;;;15.68;9.45;;;26.10;99.90;;;;;;5077938;28;20205;-74
2021/07/22 12:43:53;;;;;;;11.52;8.02;;;26.10;99.90;;;;;;5072997;28;20316;-75
2021/07/22 12:46:21;;;;;;;16.60;9.57;;;26.00;99.90;;;;;;5073952;28;20228;-74